Have a Safe July 4th! 

Flight Track Log - Related Links

Times and Time Zones

All times are in EDT time to prevent confusion due to time zone crossing. See the SWA525 flight status page for this flight to view local times or setup timezone preferences in your user account.

Time Position Orientation Groundspeed Altitude Reporting Facility
EDT Latitude Longitude Course Direction KTS MPH feet Rate Location/Type
Wed 02:29:33 PM 34.7433 -92.2147 320° Northwest 177 204 900  Level Memphis Center
Wed 02:30:46 PM 34.7864 -92.2586 320° Northwest 240 276 3,400 2,900 Climbing Memphis Center
Wed 02:32:33 PM 34.7567 -92.4197 257° West 275 316 9,600 3,162 Climbing Memphis Center
Wed 02:33:33 PM 34.7236 -92.5200 248° West 303 349 12,200 3,200 Climbing Memphis Center
Wed 02:34:33 PM 34.6781 -92.6275 243° Southwest 338 389 16,000 3,300 Climbing Memphis Center
Wed 02:35:33 PM 34.6342 -92.7400 245° Southwest 360 414 18,800 2,650 Climbing Memphis Center
Wed 02:36:33 PM 34.5881 -92.8547 244° Southwest 373 429 21,300 2,500 Climbing Memphis Center
Wed 02:37:33 PM 34.5417 -92.9794 246° West 391 450 23,800 2,250 Climbing Memphis Center
Wed 02:38:33 PM 34.4911 -93.1014 243° Southwest 402 463 25,800 1,950 Climbing Memphis Center
Wed 02:39:33 PM 34.4403 -93.2281 244° Southwest 408 470 27,700 1,750 Climbing Memphis Center
Wed 02:40:33 PM 34.3869 -93.3622 244° Southwest 427 491 29,300 1,765 Climbing Memphis Center
Wed 02:42:06 PM 34.3103 -93.5542 244° Southwest 428 493 32,200 1,882 Climbing Fort Worth Center
Wed 02:43:06 PM 34.2728 -93.6942 252° West 434 499 34,100 1,900 Climbing Fort Worth Center
Wed 02:44:06 PM 34.2350 -93.8314 252° West 439 505 36,000 942 Climbing Fort Worth Center
Wed 02:45:07 PM 34.1883 -93.9589 246° West 426 490 36,000  Level Fort Worth Center
Wed 02:46:06 PM 34.1397 -94.0861 245° Southwest 420 483 36,000  Level Fort Worth Center
Wed 02:47:07 PM 34.0850 -94.2261 245° Southwest 420 483 36,000  Level Fort Worth Center
Wed 02:48:06 PM 34.0381 -94.3558 246° West 425 489 36,000  Level Fort Worth Center
Wed 02:49:06 PM 33.9889 -94.4853 245° Southwest 425 489 36,000  Level Fort Worth Center
Wed 02:50:07 PM 33.9378 -94.6147 245° Southwest 425 489 36,000  Level Fort Worth Center
Wed 02:51:06 PM 33.8864 -94.7464 245° Southwest 425 489 36,000  Level Fort Worth Center
Wed 02:52:07 PM 33.8367 -94.8753 245° Southwest 425 489 36,000  Level Fort Worth Center
Wed 02:53:06 PM 33.7872 -95.0042 245° Southwest 425 489 36,000 -908 Level Fort Worth Center
Wed 02:54:06 PM 33.7375 -95.1356 246° West 430 495 34,200 -2,600 Descending Fort Worth Center
Wed 02:55:06 PM 33.6856 -95.2642 244° Southwest 430 495 30,800 -3,124 Descending Fort Worth Center
Wed 02:56:07 PM 33.6333 -95.3953 244° Southwest 430 495 27,900 2,600 Descending Fort Worth Center
Wed 02:57:06 PM 33.5853 -95.5208 245° Southwest 430 495 36,000 -2,521 Climbing Fort Worth Center
Wed 02:58:06 PM 33.5431 -95.6314 245° Southwest 416 479 22,900 -7,950 Descending Fort Worth Center
Wed 02:59:06 PM 33.4906 -95.7644 245° Southwest 406 467 20,100 -2,500 Descending Fort Worth Center
Wed 03:00:06 PM 33.4481 -95.8700 244° Southwest 401 461 17,900 -2,450 Descending Fort Worth Center
Wed 03:01:06 PM 33.3994 -95.9928 245° Southwest 388 447 15,200 -2,450 Descending Fort Worth Center
Wed 03:02:06 PM 33.3589 -96.0928 244° Southwest 377 434 13,000 -2,331 Descending Fort Worth Center
Wed 03:03:07 PM 33.3139 -96.2078 245° Southwest 365 420 10,500 -1,600 Descending Fort Worth Center
Wed 03:04:06 PM 33.2792 -96.2928 244° Southwest 339 390 9,800 -800 Descending Fort Worth Center
Wed 03:05:07 PM 33.2319 -96.3853 239° Southwest 315 362 8,900 -950 Descending Fort Worth Center
Wed 03:06:06 PM 33.1867 -96.4553 232° Southwest 292 336 7,900 -1,109 Descending Fort Worth Center
Wed 03:07:06 PM 33.1372 -96.5353 234° Southwest 282 325 6,700 -1,140 Descending Fort Worth Center
Wed 03:08:07 PM 33.0981 -96.6025 235° Southwest 266 306 5,600 -1,150 Descending Fort Worth Center
Wed 03:09:06 PM 33.0567 -96.6722 235° Southwest 266 306 4,400 -1,011 Descending Fort Worth Center
Wed 03:09:42 PM 33.0333 -96.7000 225° Southwest 263 303 4,000 -625 Descending Dallas / Fort Worth TRACON
Wed 03:10:42 PM 33.0000 -96.7667 239° Southwest 229 264 3,400 -500 Descending Dallas / Fort Worth TRACON
Wed 03:11:42 PM 32.9500 -96.8333 228° Southwest 233 268 3,000 -429 Descending Dallas / Fort Worth TRACON
Wed 03:12:48 PM 32.9000 -96.9000 228° Southwest 213 245 2,500 -750 Descending Dallas / Fort Worth TRACON
Wed 03:13:42 PM 32.8833 -96.8667 121° Southeast 156 180 1,500 -526 Descending Dallas / Fort Worth TRACON
Wed 03:14:42 PM 32.8500 -96.8333 140° Southeast 191 220 1,500 467 Level Dallas / Fort Worth TRACON
Wed 03:15:12 PM 32.8167 -96.8167 157° South 201 231 2,200 1,000 Climbing Dallas / Fort Worth TRACON
Wed 03:16:12 PM 32.8000 -96.7500 107° East 228 262 3,000 400 Climbing Dallas / Fort Worth TRACON
Wed 03:17:12 PM 32.8667 -96.7500 360° North 236 272 3,000  Level Dallas / Fort Worth TRACON
Wed 03:18:12 PM 32.9000 -96.8167 301° West 235 270 3,000 -400 Level Dallas / Fort Worth TRACON
Wed 03:19:12 PM 32.9500 -96.8833 312° West 218 251 2,200 -550 Descending Dallas / Fort Worth TRACON
Wed 03:20:12 PM 32.9167 -96.9000 203° Southwest 186 214 1,900 -550 Descending Dallas / Fort Worth TRACON
Wed 03:21:12 PM 32.8833 -96.8833 157° South 133 153 1,100 -800 Descending Dallas / Fort Worth TRACON

Login

Don't have an account? Register now (free) for customized features, flight alerts, and more!